Fort Lauderdale, FL

10:02 AM EDT on August 22, 2014 (GMT -0400)
Lauderdale Harbors | Change Station
CLOSE
Current Station
Personal Weather Station
Location: Fort Lauderdale, FL
Elevation: 16 ft
Nearby Weather Stations

Elev 16 ft 26.11 °N, 80.13 °W | Updated 2 minutes ago

Partly Cloudy
Partly Cloudy
90.5 °F
Feels Like 105 °F
N
2.0
Wind Variable Wind from SW
Gusts 3.0 mph

Today
High -- | Low -- °F
--% Chance of Precip.
Yesterday
High -- | Low -- °F
Precip. -- in
6:56 AM 7:50 PM
Waning Crescent, 8% visible
Pressure 30.07 in
Visibility 10.0 miles
Clouds Few 2800 ft
Heat Index 105 °F
Dew Point 78 °F
Humidity 67%
Rainfall 0.00 in
Snow Depth Not available.
UV 6 out of 12
Pollen 4.70 out of 12
Air Quality Not available.
Flu Activity Not available.
METAR KFLL 221353Z 14007KT 10SM FEW028 31/23 A3007 RMK AO2 SLP182 T03110233

More Conditions Fewer Conditions

Pressure 30.07 in
Visibility 10.0 miles
Clouds Few 2800 ft
Heat Index 105 °F
Dew Point 78 °F
Humidity 67%
Rainfall 0.00 in
Snow Depth Not available.
UV 6 out of 12
Pollen 4.70 out of 12
Air Quality Not available.
Flu Activity Not available.
METAR KFLL 221353Z 14007KT 10SM FEW028 31/23 A3007 RMK AO2 SLP182 T03110233

More Conditions Fewer Conditions

10-Day Weather Forecast

Almanac

Astronomy

Aug. 22, 2014 Rise Set
Actual Time 6:56 AM EDT 7:50 PM EDT
Civil Twilight 6:32 AM EDT 8:13 PM EDT
Nautical Twilight 6:04 AM EDT 8:41 PM EDT
Astronomical Twilight 5:35 AM EDT 9:10 PM EDT
Moon 4:24 AM EDT 5:52 PM EDT
Length of Visible Light 13h 41m
Length of Day
12h 53m
Tomorrow will be 1m 25s shorter.
Waning Crescent, 8% of the Moon is Illuminated
Today
Waning Crescent
Aug 25
New
Sep 2
First Quarter
Sep 8
Full
Sep 15
Last Quarter

Today's Extremes

State Highs State Lows

Community

WunderPhotos

Upload Photos

1,746,171 photos uploaded!

Nearby

Air Quality

  Air Quality AQ Index Pollutant
Friday Good
OZONE
Friday Good
PM2.5
Saturday Good
OZONE
Saturday Good
PM2.5
Sunday Good
OZONE
Sunday Good
PM2.5
Monday Good
OZONE
Monday Good
PM2.5
Tuesday Good
OZONE
Tuesday Good
PM2.5

Snow Depth

Station Depth Elevation
No new snow has been reported.

Earthquake Activity

City Distance Mag. Time & Date
No recent earthquake activity has been reported nearby.
Minimum magnitude displayed is 2.5.

Coastal Water Temperatures

Place Temperature
Virginia Key, FL 89.1 °F

Nearby Weather Stations